createdAt,value
2017-12-15T00:01:10.014Z,0.90
2017-12-15T00:03:37.510Z,0.90
2017-12-15T00:06:04.985Z,0.70
2017-12-15T00:08:32.478Z,0.70
2017-12-15T00:10:59.954Z,0.80
2017-12-15T00:13:27.465Z,0.60
2017-12-15T00:15:54.937Z,0.60
2017-12-15T00:18:22.409Z,0.80
2017-12-15T00:20:49.888Z,0.65
2017-12-15T00:23:17.463Z,0.80
2017-12-15T00:25:44.954Z,0.70
2017-12-15T00:28:12.421Z,0.70
2017-12-15T00:30:39.942Z,0.60
2017-12-15T00:33:07.495Z,0.55
2017-12-15T00:35:34.980Z,0.50
2017-12-15T00:38:02.474Z,0.60
2017-12-15T00:40:29.945Z,0.60
2017-12-15T00:42:57.514Z,0.70
2017-12-15T00:45:24.994Z,0.45
2017-12-15T00:47:52.470Z,0.50
2017-12-15T00:50:19.964Z,0.60
2017-12-15T00:52:47.435Z,0.65
2017-12-15T00:55:15.870Z,0.50
2017-12-15T00:57:43.347Z,0.50
2017-12-15T01:00:10.814Z,0.70
2017-12-15T01:02:38.311Z,0.60
2017-12-15T01:05:05.871Z,0.70
2017-12-15T01:07:33.341Z,0.50
2017-12-15T01:10:00.810Z,0.70
2017-12-15T01:12:28.287Z,0.60
2017-12-15T01:14:56.729Z,0.60
2017-12-15T01:17:24.205Z,0.60
2017-12-15T01:19:52.635Z,0.70
2017-12-15T01:22:20.106Z,0.60
2017-12-15T01:24:47.586Z,0.50
2017-12-15T01:27:15.078Z,0.50
2017-12-15T01:29:42.549Z,0.50
2017-12-15T01:32:10.045Z,0.47
2017-12-15T01:34:37.530Z,0.60
2017-12-15T01:37:05.067Z,0.50
2017-12-15T01:39:32.538Z,0.50
2017-12-15T01:42:00.010Z,0.50
2017-12-15T01:44:27.523Z,0.60
2017-12-15T01:46:54.998Z,0.50
2017-12-15T01:49:22.493Z,0.50
2017-12-15T01:51:49.962Z,0.60
2017-12-15T01:54:17.455Z,0.60
2017-12-15T01:56:44.926Z,0.70
2017-12-15T01:59:12.433Z,0.70
2017-12-15T02:01:39.919Z,0.70
2017-12-15T02:04:07.435Z,0.70
2017-12-15T02:06:34.901Z,0.70
2017-12-15T02:09:02.429Z,0.60
2017-12-15T02:11:29.955Z,0.57
2017-12-15T02:13:57.668Z,0.60
2017-12-15T02:16:25.151Z,0.50
2017-12-15T02:18:52.646Z,0.50
2017-12-15T02:21:20.121Z,0.50
2017-12-15T02:23:47.606Z,0.50
2017-12-15T02:26:15.078Z,0.50
2017-12-15T02:28:42.579Z,0.50
2017-12-15T02:31:10.051Z,0.40
2017-12-15T02:33:37.544Z,0.40
2017-12-15T02:36:05.009Z,0.43
2017-12-15T02:38:32.506Z,0.40
2017-12-15T02:41:00.079Z,0.40
2017-12-15T02:43:27.640Z,0.30
2017-12-15T02:45:55.107Z,0.45
2017-12-15T02:48:22.578Z,0.45
2017-12-15T02:50:50.078Z,0.40
2017-12-15T02:53:17.550Z,0.50
2017-12-15T02:55:45.050Z,0.50
2017-12-15T02:58:12.523Z,0.45
2017-12-15T03:00:40.031Z,0.50
2017-12-15T03:03:07.514Z,0.60
2017-12-15T03:05:34.982Z,0.60
2017-12-15T03:08:02.466Z,0.57
2017-12-15T03:10:29.935Z,0.50
2017-12-15T03:12:57.418Z,0.50
2017-12-15T03:15:25.075Z,0.70
2017-12-15T03:17:52.567Z,0.80
2017-12-15T03:20:20.250Z,0.60
2017-12-15T03:22:47.722Z,0.70
2017-12-15T03:25:15.211Z,0.70
2017-12-15T03:27:42.686Z,0.57
2017-12-15T03:30:10.554Z,0.80
2017-12-15T03:32:38.051Z,0.60
2017-12-15T03:35:05.518Z,0.65
2017-12-15T03:37:33.006Z,0.60
2017-12-15T03:40:00.483Z,0.60
2017-12-15T03:42:28.894Z,0.70
2017-12-15T03:44:57.454Z,0.50
2017-12-15T03:47:24.934Z,0.40
2017-12-15T03:49:52.406Z,0.50
2017-12-15T03:52:19.942Z,0.40
2017-12-15T03:54:47.420Z,0.40
2017-12-15T03:57:14.910Z,0.50
2017-12-15T03:59:42.383Z,0.40
2017-12-15T04:02:09.859Z,0.40
2017-12-15T04:04:37.337Z,0.30
2017-12-15T04:07:04.818Z,0.30
2017-12-15T04:09:32.359Z,0.40
2017-12-15T04:11:59.939Z,0.30
2017-12-15T04:14:27.449Z,0.30
2017-12-15T04:16:54.926Z,0.40
2017-12-15T04:19:24.358Z,0.40
2017-12-15T04:21:51.863Z,0.40
2017-12-15T04:24:19.354Z,0.40
2017-12-15T04:26:46.836Z,0.40
2017-12-15T04:29:14.309Z,0.40
2017-12-15T04:31:41.806Z,0.50
2017-12-15T04:34:09.274Z,0.40
2017-12-15T04:36:36.745Z,0.40
2017-12-15T04:39:03.999Z,0.40
2017-12-15T04:41:31.481Z,0.45
2017-12-15T04:43:58.955Z,0.40
2017-12-15T04:46:26.427Z,0.40
2017-12-15T04:48:53.902Z,0.40
2017-12-15T04:51:21.451Z,0.40
2017-12-15T04:53:48.926Z,0.40
2017-12-15T04:56:17.350Z,0.50
2017-12-15T04:58:44.846Z,0.40
2017-12-15T05:01:12.343Z,0.45
2017-12-15T05:03:39.813Z,0.40
2017-12-15T05:06:07.294Z,0.40
2017-12-15T05:08:34.773Z,0.40
2017-12-15T05:11:02.243Z,0.50
2017-12-15T05:13:29.726Z,0.47
2017-12-15T05:15:57.216Z,0.50
2017-12-15T05:18:25.644Z,0.52
2017-12-15T05:20:53.116Z,0.40
2017-12-15T05:23:20.585Z,0.50
2017-12-15T05:25:48.479Z,0.40
2017-12-15T05:28:15.958Z,0.50
2017-12-15T05:30:43.450Z,0.60
2017-12-15T05:33:10.920Z,0.50
2017-12-15T05:35:38.401Z,0.60
2017-12-15T05:38:05.871Z,0.50
2017-12-15T05:40:33.368Z,0.70
2017-12-15T05:43:00.856Z,0.60
2017-12-15T05:45:30.106Z,0.55
2017-12-15T05:47:57.587Z,0.50
2017-12-15T05:50:27.014Z,0.68
2017-12-15T05:52:54.491Z,0.60
2017-12-15T05:55:21.957Z,0.40
2017-12-15T05:57:49.426Z,0.50
2017-12-15T06:00:16.898Z,0.85
2017-12-15T06:02:44.380Z,0.40
2017-12-15T06:05:11.849Z,0.40
2017-12-15T06:07:39.313Z,0.50
2017-12-15T06:10:06.866Z,0.50
2017-12-15T06:12:34.359Z,0.50
2017-12-15T06:15:01.834Z,0.55
2017-12-15T06:17:29.301Z,0.55
2017-12-15T06:19:56.856Z,0.50
2017-12-15T06:22:24.336Z,0.55
2017-12-15T06:24:51.808Z,0.60
2017-12-15T06:27:19.284Z,0.50
2017-12-15T06:29:46.763Z,0.40
2017-12-15T06:32:15.246Z,0.68
2017-12-15T06:34:42.713Z,0.55
2017-12-15T06:37:10.213Z,0.60
2017-12-15T06:39:37.691Z,0.50
2017-12-15T06:42:05.170Z,0.50
2017-12-15T06:44:32.642Z,0.60
2017-12-15T06:47:00.111Z,0.57
2017-12-15T06:49:27.583Z,0.60
2017-12-15T06:51:55.050Z,0.50
2017-12-15T06:54:23.064Z,0.50
2017-12-15T06:56:52.482Z,0.50
2017-12-15T06:59:19.950Z,0.50
2017-12-15T07:01:47.430Z,0.50
2017-12-15T07:04:14.898Z,0.50
2017-12-15T07:06:42.370Z,0.50
2017-12-15T07:09:09.630Z,0.50
2017-12-15T07:11:37.103Z,0.57
2017-12-15T07:14:04.571Z,0.50
2017-12-15T07:16:32.070Z,0.55
2017-12-15T07:19:00.507Z,0.50
2017-12-15T07:21:27.989Z,0.65
2017-12-15T07:23:55.458Z,0.50
2017-12-15T07:26:23.943Z,0.45
2017-12-15T07:28:51.510Z,0.73
2017-12-15T07:31:19.958Z,0.60
2017-12-15T07:33:47.443Z,0.60
2017-12-15T07:36:14.910Z,0.65
2017-12-15T07:38:42.378Z,0.50
2017-12-15T07:41:09.858Z,1.52
2017-12-15T07:43:37.350Z,0.80
2017-12-15T07:46:04.829Z,0.50
2017-12-15T07:48:32.303Z,0.50
2017-12-15T07:50:59.773Z,0.60
2017-12-15T07:53:27.255Z,3.10
2017-12-15T07:55:54.738Z,1.45
2017-12-15T07:58:22.238Z,2.17
2017-12-15T08:00:49.728Z,7.00
2017-12-15T08:03:17.227Z,1.10
2017-12-15T08:05:44.699Z,0.50
2017-12-15T08:08:12.185Z,0.50
2017-12-15T08:10:39.659Z,1.10
2017-12-15T08:13:08.147Z,1.45
2017-12-15T08:15:35.626Z,0.60
2017-12-15T08:18:03.221Z,0.50
2017-12-15T08:20:30.694Z,0.60
2017-12-15T08:22:58.166Z,0.80
2017-12-15T08:25:25.642Z,0.85
2017-12-15T08:27:53.112Z,0.73
2017-12-15T08:30:20.593Z,0.70
2017-12-15T08:32:48.166Z,0.60
2017-12-15T08:35:15.727Z,0.65
2017-12-15T08:37:43.212Z,0.73
2017-12-15T08:40:10.689Z,0.50
2017-12-15T08:42:38.164Z,0.50
2017-12-15T08:45:05.643Z,0.50
2017-12-15T08:47:33.217Z,0.60
2017-12-15T08:50:00.752Z,0.50
2017-12-15T08:52:28.357Z,0.50
2017-12-15T08:54:55.829Z,0.50
2017-12-15T08:57:23.305Z,1.80
2017-12-15T08:59:50.778Z,0.60
2017-12-15T09:02:18.255Z,0.60
2017-12-15T09:04:45.836Z,0.40
2017-12-15T09:07:13.301Z,0.65
2017-12-15T09:09:40.802Z,0.50
2017-12-15T09:12:08.275Z,0.50
2017-12-15T09:14:35.764Z,0.90
2017-12-15T09:17:03.230Z,0.80
2017-12-15T09:19:30.713Z,0.52
2017-12-15T09:21:58.194Z,0.80
2017-12-15T09:24:26.690Z,0.73
2017-12-15T09:26:54.170Z,0.90
2017-12-15T09:29:21.662Z,0.75
2017-12-15T09:31:49.147Z,1.65
2017-12-15T09:34:16.642Z,0.73
2017-12-15T09:36:44.116Z,1.40
2017-12-15T09:39:11.611Z,0.60
2017-12-15T09:41:39.079Z,0.90
2017-12-15T09:44:06.575Z,1.77
2017-12-15T09:46:34.062Z,0.85
2017-12-15T09:49:01.554Z,0.60
2017-12-15T09:51:29.032Z,0.40
2017-12-15T09:53:56.577Z,0.60
2017-12-15T09:56:24.061Z,0.57
2017-12-15T09:58:51.554Z,0.50
2017-12-15T10:01:19.024Z,0.60
2017-12-15T10:03:46.509Z,0.40
2017-12-15T10:06:13.977Z,0.55
2017-12-15T10:08:41.471Z,0.47
2017-12-15T10:11:09.898Z,0.50
2017-12-15T10:13:38.354Z,0.95
2017-12-15T10:16:05.818Z,0.43
2017-12-15T10:18:33.287Z,0.57
2017-12-15T10:21:00.782Z,0.60
2017-12-15T10:23:28.269Z,0.55
2017-12-15T10:25:55.760Z,0.60
2017-12-15T10:28:23.229Z,0.50
2017-12-15T10:30:50.722Z,0.50
2017-12-15T10:33:18.294Z,0.95
2017-12-15T10:35:45.833Z,0.50
2017-12-15T10:38:13.537Z,0.40
2017-12-15T10:40:41.026Z,0.60
2017-12-15T10:43:08.504Z,0.60
2017-12-15T10:45:35.995Z,0.50
2017-12-15T10:48:03.471Z,0.68
2017-12-15T10:50:32.906Z,0.60
2017-12-15T10:53:00.379Z,0.77
2017-12-15T10:55:27.967Z,0.60
2017-12-15T10:57:55.445Z,0.50
2017-12-15T11:00:22.938Z,0.40
2017-12-15T11:02:50.415Z,0.60
2017-12-15T11:05:17.886Z,0.65
2017-12-15T11:07:45.362Z,0.45
2017-12-15T11:10:13.786Z,0.50
2017-12-15T11:12:41.262Z,0.40
2017-12-15T11:15:08.749Z,0.43
2017-12-15T11:17:36.310Z,0.70
2017-12-15T11:20:03.779Z,0.70
2017-12-15T11:22:31.250Z,0.60
2017-12-15T11:24:58.723Z,0.93
2017-12-15T11:27:26.198Z,0.50
2017-12-15T11:29:53.666Z,0.50
2017-12-15T11:32:21.146Z,0.50
2017-12-15T11:34:48.618Z,0.50
2017-12-15T11:37:17.038Z,0.50
2017-12-15T11:39:44.513Z,0.60
2017-12-15T11:42:11.984Z,0.70
2017-12-15T11:44:39.459Z,0.50
2017-12-15T11:47:07.024Z,0.75
2017-12-15T11:49:34.530Z,0.50
2017-12-15T11:52:02.939Z,0.60
2017-12-15T11:54:30.429Z,0.57
2017-12-15T11:56:57.894Z,0.52
2017-12-15T11:59:25.387Z,0.62
2017-12-15T12:01:52.853Z,0.50
2017-12-15T12:04:20.452Z,0.47
2017-12-15T12:06:47.918Z,0.50
2017-12-15T12:09:15.394Z,0.80
2017-12-15T12:11:42.862Z,0.50
2017-12-15T12:14:10.334Z,0.60
2017-12-15T12:16:37.824Z,0.60
2017-12-15T12:19:06.250Z,0.95
2017-12-15T12:21:33.718Z,0.50
2017-12-15T12:24:01.194Z,0.50
2017-12-15T12:26:28.666Z,0.50
2017-12-15T12:28:56.154Z,0.70
2017-12-15T12:31:24.219Z,0.50
2017-12-15T12:33:51.689Z,0.60
2017-12-15T12:36:19.166Z,0.50
2017-12-15T12:38:46.630Z,0.60
2017-12-15T12:41:14.098Z,0.55
2017-12-15T12:43:41.579Z,0.60
2017-12-15T12:46:09.060Z,0.88
2017-12-15T12:48:36.562Z,0.60
2017-12-15T12:51:04.040Z,0.60
2017-12-15T12:53:31.510Z,0.70
2017-12-15T12:55:58.980Z,0.68
2017-12-15T12:58:26.455Z,0.55
2017-12-15T13:00:54.018Z,0.70
2017-12-15T13:03:21.504Z,0.70
2017-12-15T13:05:48.971Z,0.50
2017-12-15T13:08:16.440Z,0.50
2017-12-15T13:10:43.919Z,0.60
2017-12-15T13:13:11.395Z,0.50
2017-12-15T13:15:38.866Z,0.50
2017-12-15T13:18:06.423Z,0.50
2017-12-15T13:20:33.983Z,0.57
2017-12-15T13:23:01.278Z,0.70
2017-12-15T13:25:28.749Z,0.50
2017-12-15T13:27:56.251Z,0.70
2017-12-15T13:30:23.531Z,0.70
2017-12-15T13:32:51.001Z,0.60
2017-12-15T13:35:18.475Z,0.60
2017-12-15T13:37:45.944Z,0.57
2017-12-15T13:40:13.435Z,0.70
2017-12-15T13:42:40.993Z,0.68
2017-12-15T13:45:08.482Z,0.52
2017-12-15T13:47:35.950Z,0.60
2017-12-15T13:50:03.443Z,0.65
2017-12-15T13:52:30.920Z,0.73
2017-12-15T13:54:58.433Z,1.20
2017-12-15T13:57:26.071Z,0.60
2017-12-15T13:59:53.570Z,0.73
2017-12-15T14:02:21.049Z,3.40
2017-12-15T14:04:48.544Z,0.70
2017-12-15T14:07:16.018Z,0.60
2017-12-15T14:09:43.502Z,0.60
2017-12-15T14:12:10.978Z,0.70
2017-12-15T14:14:38.475Z,0.73
2017-12-15T14:17:06.898Z,0.90
2017-12-15T14:19:34.489Z,0.70
2017-12-15T14:22:02.051Z,0.75
2017-12-15T14:24:29.538Z,0.90
2017-12-15T14:26:57.003Z,0.55
2017-12-15T14:29:24.534Z,0.60
2017-12-15T14:31:52.003Z,0.70
2017-12-15T14:34:19.494Z,0.60
2017-12-15T14:36:46.969Z,0.62
2017-12-15T14:39:16.426Z,1.05
2017-12-15T14:41:43.904Z,0.82
2017-12-15T14:44:11.379Z,0.50
2017-12-15T14:46:38.851Z,0.90
2017-12-15T14:49:06.331Z,1.37
2017-12-15T14:51:33.806Z,0.60
2017-12-15T14:54:01.282Z,0.50
2017-12-15T14:56:28.759Z,0.70
2017-12-15T14:58:56.306Z,0.60
2017-12-15T15:01:23.779Z,0.82
2017-12-15T15:03:51.253Z,0.68
2017-12-15T15:06:18.738Z,0.93
2017-12-15T15:08:46.213Z,0.90
2017-12-15T15:11:13.687Z,0.65
2017-12-15T15:13:41.169Z,0.75
2017-12-15T15:16:08.644Z,1.10
2017-12-15T15:18:36.120Z,0.80
2017-12-15T15:21:04.639Z,0.73
2017-12-15T15:23:32.114Z,0.82
2017-12-15T15:25:59.628Z,1.55
2017-12-15T15:28:27.111Z,0.70
2017-12-15T15:30:54.608Z,2.50
2017-12-15T15:33:22.091Z,1.15
2017-12-15T15:35:49.581Z,0.90
2017-12-15T15:38:17.049Z,1.30
2017-12-15T15:40:44.542Z,0.80
2017-12-15T15:43:12.132Z,26.02
2017-12-15T15:45:39.658Z,9.57
2017-12-15T15:48:07.157Z,14.93
2017-12-15T15:50:34.675Z,12.20
2017-12-15T15:53:02.306Z,5.82
2017-12-15T15:55:29.830Z,21.75
2017-12-15T15:57:57.351Z,12.55
2017-12-15T16:00:24.858Z,1.75
2017-12-15T16:02:52.338Z,3.53
2017-12-15T16:05:19.838Z,3.80
2017-12-15T16:07:47.388Z,10.38
2017-12-15T16:10:14.910Z,6.68
2017-12-15T16:12:42.390Z,5.90
2017-12-15T16:15:09.881Z,7.37
2017-12-15T16:17:37.383Z,3.35
2017-12-15T16:20:04.861Z,0.90
2017-12-15T16:22:32.334Z,1.60
2017-12-15T16:24:59.816Z,1.10
2017-12-15T16:27:27.298Z,1.00
2017-12-15T16:29:54.780Z,1.20
2017-12-15T16:32:22.280Z,1.50
2017-12-15T16:34:49.759Z,1.05
2017-12-15T16:37:17.265Z,1.23
2017-12-15T16:39:44.756Z,1.10
2017-12-15T16:42:12.266Z,1.05
2017-12-15T16:44:39.770Z,1.00
2017-12-15T16:47:07.278Z,1.10
2017-12-15T16:49:34.774Z,2.12
2017-12-15T16:52:02.271Z,2.55
2017-12-15T16:54:29.750Z,3.83
2017-12-15T16:56:57.259Z,4.50
2017-12-15T16:59:24.751Z,2.40
2017-12-15T17:01:52.269Z,2.65
2017-12-15T17:04:19.753Z,3.22
2017-12-15T17:06:48.274Z,3.95
2017-12-15T17:09:15.758Z,7.68
2017-12-15T17:11:44.766Z,5.30
2017-12-15T17:14:12.242Z,2.47
2017-12-15T17:16:39.716Z,1.98
2017-12-15T17:19:07.194Z,1.52
2017-12-15T17:21:34.684Z,0.95
2017-12-15T17:24:02.173Z,1.00
2017-12-15T17:26:29.642Z,0.80
2017-12-15T17:28:57.114Z,0.95
2017-12-15T17:31:24.762Z,2.80
2017-12-15T17:33:52.254Z,1.27
2017-12-15T17:36:19.734Z,0.90
2017-12-15T17:38:48.182Z,0.90
2017-12-15T17:41:15.655Z,0.88
2017-12-15T17:43:43.143Z,1.02
2017-12-15T17:46:10.626Z,1.25
2017-12-15T17:48:38.190Z,2.10
2017-12-15T17:51:05.749Z,2.10
2017-12-15T17:53:33.223Z,1.85
2017-12-15T17:56:00.718Z,2.80
2017-12-15T17:58:28.027Z,1.20
2017-12-15T18:00:55.535Z,3.58
2017-12-15T18:03:23.046Z,2.37
2017-12-15T18:05:50.530Z,2.70
2017-12-15T18:08:18.001Z,2.30
2017-12-15T18:10:45.484Z,2.00
2017-12-15T18:13:12.969Z,1.77
2017-12-15T18:15:40.455Z,2.72
2017-12-15T18:18:07.947Z,1.60
2017-12-15T18:20:35.432Z,2.20
2017-12-15T18:23:02.911Z,1.55
2017-12-15T18:25:30.386Z,2.10
2017-12-15T18:27:57.911Z,2.00
2017-12-15T18:30:25.394Z,3.08
2017-12-15T18:32:52.870Z,2.85
2017-12-15T18:35:20.357Z,3.00
2017-12-15T18:37:47.834Z,1.45
2017-12-15T18:40:15.305Z,1.50
2017-12-15T18:42:42.783Z,4.75
2017-12-15T18:45:10.270Z,6.78
2017-12-15T18:47:37.753Z,5.05
2017-12-15T18:50:05.254Z,6.20
2017-12-15T18:52:32.934Z,5.30
2017-12-15T18:55:00.419Z,4.90
2017-12-15T18:57:27.914Z,1.73
2017-12-15T18:59:55.396Z,1.55
2017-12-15T19:02:23.572Z,1.50
2017-12-15T19:04:51.062Z,1.10
2017-12-15T19:07:18.537Z,1.33
2017-12-15T19:09:46.021Z,1.45
2017-12-15T19:12:13.506Z,2.60
2017-12-15T19:14:40.984Z,2.92
2017-12-15T19:17:08.573Z,2.00
2017-12-15T19:19:36.054Z,3.75
2017-12-15T19:22:03.551Z,2.00
2017-12-15T19:24:31.029Z,0.90
2017-12-15T19:26:59.509Z,0.95
2017-12-15T19:29:26.982Z,1.83
2017-12-15T19:31:54.498Z,3.67
2017-12-15T19:34:21.972Z,1.87
2017-12-15T19:36:49.473Z,1.35
2017-12-15T19:39:16.948Z,1.45
2017-12-15T19:41:44.437Z,1.35
2017-12-15T19:44:11.921Z,1.77
2017-12-15T19:46:39.415Z,1.23
2017-12-15T19:49:06.894Z,1.20
2017-12-15T19:51:34.398Z,1.27
2017-12-15T19:54:02.854Z,3.30
2017-12-15T19:56:30.354Z,2.75
2017-12-15T19:58:57.830Z,1.80
2017-12-15T20:01:25.327Z,1.70
2017-12-15T20:03:52.806Z,2.20
2017-12-15T20:06:22.286Z,1.05
2017-12-15T20:08:49.770Z,0.90
2017-12-15T20:11:17.250Z,1.08
2017-12-15T20:13:44.739Z,1.20
2017-12-15T20:16:12.219Z,1.05
2017-12-15T20:18:39.739Z,1.40
2017-12-15T20:21:07.224Z,1.60
2017-12-15T20:23:34.699Z,1.45
2017-12-15T20:26:02.168Z,1.73
2017-12-15T20:28:29.676Z,1.73
2017-12-15T20:30:57.160Z,1.00
2017-12-15T20:33:24.665Z,1.10
2017-12-15T20:35:52.146Z,1.70
2017-12-15T20:38:19.646Z,1.60
2017-12-15T20:40:47.126Z,1.70
2017-12-15T20:43:16.581Z,1.90
2017-12-15T20:45:44.053Z,1.42
2017-12-15T20:48:11.562Z,2.40
2017-12-15T20:50:39.033Z,1.62
2017-12-15T20:53:06.539Z,2.15
2017-12-15T20:55:34.018Z,1.98
2017-12-15T20:58:01.512Z,2.20
2017-12-15T21:00:28.990Z,1.73
2017-12-15T21:02:56.520Z,2.33
2017-12-15T21:05:23.999Z,2.20
2017-12-15T21:07:51.499Z,1.80
2017-12-15T21:10:18.977Z,1.92
2017-12-15T21:12:46.474Z,2.20
2017-12-15T21:15:13.963Z,2.37
2017-12-15T21:17:41.466Z,2.10
2017-12-15T21:20:08.952Z,1.95
2017-12-15T21:22:36.846Z,2.40
2017-12-15T21:25:04.323Z,1.80
2017-12-15T21:27:31.808Z,2.05
2017-12-15T21:29:59.496Z,1.65
2017-12-15T21:32:26.974Z,2.05
2017-12-15T21:34:54.476Z,1.65
2017-12-15T21:37:22.071Z,2.25
2017-12-15T21:39:49.542Z,1.60
2017-12-15T21:42:17.023Z,1.95
2017-12-15T21:44:44.501Z,1.60
2017-12-15T21:47:12.002Z,1.85
2017-12-15T21:49:39.479Z,1.35
2017-12-15T21:52:06.958Z,1.85
2017-12-15T21:54:34.442Z,1.55
2017-12-15T21:57:01.731Z,1.65
2017-12-15T21:59:29.236Z,1.85
2017-12-15T22:01:56.822Z,1.83
2017-12-15T22:04:24.294Z,1.77
2017-12-15T22:06:51.863Z,1.85
2017-12-15T22:09:19.349Z,2.72
2017-12-15T22:11:46.843Z,1.70
2017-12-15T22:14:14.333Z,2.25
2017-12-15T22:16:41.818Z,1.90
2017-12-15T22:19:09.299Z,1.60
2017-12-15T22:21:36.777Z,1.85
2017-12-15T22:24:04.274Z,1.85
2017-12-15T22:26:32.691Z,1.90
2017-12-15T22:29:00.169Z,1.52
2017-12-15T22:31:27.646Z,1.40
2017-12-15T22:33:55.123Z,1.20
2017-12-15T22:36:22.615Z,1.60
2017-12-15T22:38:50.093Z,1.58
2017-12-15T22:41:17.593Z,1.70
2017-12-15T22:43:45.072Z,1.52
2017-12-15T22:46:14.506Z,1.60
2017-12-15T22:48:41.985Z,1.48
2017-12-15T22:51:10.474Z,1.95
2017-12-15T22:53:38.903Z,2.15
2017-12-15T22:56:06.459Z,2.65
2017-12-15T22:58:33.945Z,2.80
2017-12-15T23:01:01.422Z,3.45
2017-12-15T23:03:28.902Z,2.37
2017-12-15T23:05:56.425Z,2.05
2017-12-15T23:08:23.903Z,2.67
2017-12-15T23:10:51.380Z,2.08
2017-12-15T23:13:18.863Z,2.40
2017-12-15T23:15:46.347Z,2.53
2017-12-15T23:18:13.957Z,1.70
2017-12-15T23:20:41.515Z,1.80
2017-12-15T23:23:08.994Z,1.52
2017-12-15T23:25:36.470Z,1.50
2017-12-15T23:28:03.951Z,2.00
2017-12-15T23:30:31.555Z,1.73
2017-12-15T23:32:59.114Z,1.90
2017-12-15T23:35:26.589Z,1.55
2017-12-15T23:37:54.071Z,2.15
2017-12-15T23:40:21.546Z,2.03
2017-12-15T23:42:49.056Z,1.75
2017-12-15T23:45:16.530Z,1.80
2017-12-15T23:47:44.058Z,1.60
2017-12-15T23:50:11.535Z,1.62
2017-12-15T23:52:39.005Z,2.17
2017-12-15T23:55:12.255Z,2.20
2017-12-15T23:57:39.733Z,1.95
